createdAt,value
2023-01-06T00:00:08.488Z,1005.90
2023-01-06T00:01:05.099Z,1005.93
2023-01-06T00:02:05.112Z,1005.92
2023-01-06T00:03:05.099Z,1005.88
2023-01-06T00:04:05.113Z,1005.83
2023-01-06T00:05:05.053Z,1005.79
2023-01-06T00:06:05.052Z,1005.81
2023-01-06T00:07:05.034Z,1005.83
2023-01-06T00:08:05.052Z,1005.84
2023-01-06T00:09:05.086Z,1005.86
2023-01-06T00:10:05.017Z,1005.84
2023-01-06T00:11:04.994Z,1005.87
2023-01-06T00:12:05.003Z,1005.84
2023-01-06T00:13:04.970Z,1005.76
2023-01-06T00:14:04.985Z,1005.73
2023-01-06T00:15:04.970Z,1005.69
2023-01-06T00:16:05.013Z,1005.65
2023-01-06T00:17:04.933Z,1005.63
2023-01-06T00:18:04.947Z,1005.64
2023-01-06T00:19:04.914Z,1005.69
2023-01-06T00:20:04.909Z,1005.69
2023-01-06T00:21:04.909Z,1005.69
2023-01-06T00:22:04.917Z,1005.71
2023-01-06T00:23:04.882Z,1005.67
2023-01-06T00:24:04.877Z,1005.66
2023-01-06T00:25:04.849Z,1005.62
2023-01-06T00:26:04.845Z,1005.58
2023-01-06T00:27:04.840Z,1005.60
2023-01-06T00:28:04.846Z,1005.60
2023-01-06T00:29:04.809Z,1005.61
2023-01-06T00:30:04.832Z,1005.60
2023-01-06T00:31:04.848Z,1005.57
2023-01-06T00:32:04.822Z,1005.55
2023-01-06T00:33:04.765Z,1005.56
2023-01-06T00:34:04.768Z,1005.53
2023-01-06T00:35:04.758Z,1005.51
2023-01-06T00:36:04.752Z,1005.53
2023-01-06T00:37:04.729Z,1005.52
2023-01-06T00:38:04.732Z,1005.49
2023-01-06T00:39:04.712Z,1005.49
2023-01-06T00:40:04.707Z,1005.50
2023-01-06T00:41:04.672Z,1005.47
2023-01-06T00:42:04.740Z,1005.47
2023-01-06T00:43:04.665Z,1005.51
2023-01-06T00:44:04.668Z,1005.48
2023-01-06T00:45:04.644Z,1005.48
2023-01-06T00:46:04.734Z,1005.50
2023-01-06T00:47:04.630Z,1005.52
2023-01-06T00:48:04.636Z,1005.51
2023-01-06T00:49:06.366Z,1005.51
2023-01-06T00:50:04.654Z,1005.51
2023-01-06T00:51:04.580Z,1005.56
2023-01-06T00:52:04.600Z,1005.54
2023-01-06T00:53:04.598Z,1005.60
2023-01-06T00:54:04.606Z,1005.61
2023-01-06T00:55:04.552Z,1005.56
2023-01-06T00:56:04.559Z,1005.59
2023-01-06T00:57:04.509Z,1005.53
2023-01-06T00:58:04.514Z,1005.53
2023-01-06T00:59:04.537Z,1005.52
2023-01-06T01:00:04.491Z,1005.49
2023-01-06T01:01:04.657Z,1005.49
2023-01-06T01:02:04.607Z,1005.51
2023-01-06T01:03:04.556Z,1005.49
2023-01-06T01:04:05.350Z,1005.51
2023-01-06T01:05:04.439Z,1005.53
2023-01-06T01:06:04.436Z,1005.51
2023-01-06T01:07:04.435Z,1005.51
2023-01-06T01:08:04.438Z,1005.51
2023-01-06T01:09:04.422Z,1005.50
2023-01-06T01:10:04.420Z,1005.48
2023-01-06T01:11:04.376Z,1005.47
2023-01-06T01:12:04.412Z,1005.45
2023-01-06T01:13:04.372Z,1005.46
2023-01-06T01:14:04.349Z,1005.46
2023-01-06T01:15:04.343Z,1005.44
2023-01-06T01:16:04.396Z,1005.46
2023-01-06T01:17:04.319Z,1005.41
2023-01-06T01:18:04.302Z,1005.41
2023-01-06T01:19:04.299Z,1005.40
2023-01-06T01:20:04.304Z,1005.41
2023-01-06T01:21:04.282Z,1005.43
2023-01-06T01:22:04.265Z,1005.40
2023-01-06T01:23:04.253Z,1005.40
2023-01-06T01:24:04.287Z,1005.40
2023-01-06T01:25:04.251Z,1005.41
2023-01-06T01:26:04.247Z,1005.40
2023-01-06T01:27:04.206Z,1005.41
2023-01-06T01:28:04.205Z,1005.41
2023-01-06T01:29:04.231Z,1005.40
2023-01-06T01:30:04.192Z,1005.39
2023-01-06T01:31:04.197Z,1005.38
2023-01-06T01:32:04.171Z,1005.37
2023-01-06T01:33:04.149Z,1005.39
2023-01-06T01:34:04.142Z,1005.36
2023-01-06T01:35:04.140Z,1005.33
2023-01-06T01:36:04.136Z,1005.35
2023-01-06T01:37:04.111Z,1005.36
2023-01-06T01:38:04.097Z,1005.39
2023-01-06T01:39:04.096Z,1005.39
2023-01-06T01:40:04.060Z,1005.41
2023-01-06T01:41:04.056Z,1005.41
2023-01-06T01:42:04.065Z,1005.43
2023-01-06T01:43:04.039Z,1005.45
2023-01-06T01:44:04.071Z,1005.43
2023-01-06T01:45:04.066Z,1005.45
2023-01-06T01:46:04.055Z,1005.48
2023-01-06T01:47:04.014Z,1005.45
2023-01-06T01:48:03.999Z,1005.46
2023-01-06T01:49:03.980Z,1005.42
2023-01-06T01:50:04.018Z,1005.45
2023-01-06T01:51:03.990Z,1005.38
2023-01-06T01:52:03.958Z,1005.42
2023-01-06T01:53:03.939Z,1005.40
2023-01-06T01:54:03.991Z,1005.42
2023-01-06T01:55:03.939Z,1005.36
2023-01-06T01:56:03.946Z,1005.38
2023-01-06T01:57:03.908Z,1005.36
2023-01-06T01:58:03.898Z,1005.32
2023-01-06T01:59:03.881Z,1005.34
2023-01-06T02:00:03.904Z,1005.32
2023-01-06T02:01:04.013Z,1005.31
2023-01-06T02:02:04.013Z,1005.34
2023-01-06T02:03:03.918Z,1005.33
2023-01-06T02:04:03.860Z,1005.34
2023-01-06T02:05:03.825Z,1005.36
2023-01-06T02:06:03.841Z,1005.37
2023-01-06T02:07:03.807Z,1005.30
2023-01-06T02:08:03.809Z,1005.29
2023-01-06T02:09:03.773Z,1005.32
2023-01-06T02:10:03.777Z,1005.26
2023-01-06T02:11:03.795Z,1005.28
2023-01-06T02:12:03.758Z,1005.30
2023-01-06T02:13:03.810Z,1005.35
2023-01-06T02:14:03.733Z,1005.32
2023-01-06T02:15:03.735Z,1005.31
2023-01-06T02:16:03.740Z,1005.33
2023-01-06T02:17:03.698Z,1005.25
2023-01-06T02:18:03.711Z,1005.29
2023-01-06T02:19:03.693Z,1005.24
2023-01-06T02:20:03.659Z,1005.19
2023-01-06T02:21:03.645Z,1005.15
2023-01-06T02:22:03.659Z,1005.23
2023-01-06T02:23:03.627Z,1005.18
2023-01-06T02:24:03.683Z,1005.19
2023-01-06T02:25:03.617Z,1005.17
2023-01-06T02:26:03.684Z,1005.16
2023-01-06T02:27:03.602Z,1005.15
2023-01-06T02:28:03.604Z,1005.13
2023-01-06T02:29:03.570Z,1005.14
2023-01-06T02:30:03.579Z,1005.08
2023-01-06T02:31:03.608Z,1005.12
2023-01-06T02:32:03.575Z,1005.12
2023-01-06T02:33:03.524Z,1005.04
2023-01-06T02:34:03.532Z,1005.06
2023-01-06T02:35:03.500Z,1005.05
2023-01-06T02:36:03.534Z,1004.98
2023-01-06T02:37:03.562Z,1005.05
2023-01-06T02:38:03.476Z,1005.01
2023-01-06T02:39:03.487Z,1005.02
2023-01-06T02:40:03.477Z,1005.04
2023-01-06T02:41:03.461Z,1005.02
2023-01-06T02:42:03.448Z,1004.94
2023-01-06T02:43:03.417Z,1005.03
2023-01-06T02:44:03.430Z,1005.05
2023-01-06T02:45:03.419Z,1005.06
2023-01-06T02:46:03.461Z,1005.00
2023-01-06T02:47:03.391Z,1005.02
2023-01-06T02:48:03.395Z,1005.00
2023-01-06T02:49:03.377Z,1005.02
2023-01-06T02:50:03.385Z,1005.00
2023-01-06T02:51:03.351Z,1004.98
2023-01-06T02:52:03.436Z,1004.99
2023-01-06T02:53:03.340Z,1004.91
2023-01-06T02:54:03.328Z,1004.93
2023-01-06T02:55:03.317Z,1004.92
2023-01-06T02:56:03.302Z,1004.93
2023-01-06T02:57:03.346Z,1004.90
2023-01-06T02:58:03.282Z,1004.86
2023-01-06T02:59:03.291Z,1004.88
2023-01-06T03:00:03.273Z,1004.89
2023-01-06T03:01:03.255Z,1004.86
2023-01-06T03:02:03.323Z,1004.83
2023-01-06T03:03:03.236Z,1004.81
2023-01-06T03:04:03.232Z,1004.76
2023-01-06T03:05:03.190Z,1004.77
2023-01-06T03:06:03.193Z,1004.77
2023-01-06T03:07:03.191Z,1004.79
2023-01-06T03:08:03.185Z,1004.78
2023-01-06T03:09:03.174Z,1004.78
2023-01-06T03:10:03.179Z,1004.75
2023-01-06T03:11:03.152Z,1004.74
2023-01-06T03:12:03.142Z,1004.74
2023-01-06T03:13:03.123Z,1004.74
2023-01-06T03:14:03.135Z,1004.73
2023-01-06T03:15:03.124Z,1004.71
2023-01-06T03:16:03.168Z,1004.73
2023-01-06T03:17:03.094Z,1004.74
2023-01-06T03:18:03.102Z,1004.74
2023-01-06T03:19:03.093Z,1004.77
2023-01-06T03:20:03.074Z,1004.67
2023-01-06T03:21:03.033Z,1004.71
2023-01-06T03:22:03.096Z,1004.70
2023-01-06T03:23:03.012Z,1004.64
2023-01-06T03:24:03.013Z,1004.58
2023-01-06T03:25:03.015Z,1004.57
2023-01-06T03:26:02.983Z,1004.58
2023-01-06T03:27:02.977Z,1004.54
2023-01-06T03:28:02.982Z,1004.53
2023-01-06T03:29:02.971Z,1004.52
2023-01-06T03:30:02.961Z,1004.52
2023-01-06T03:31:02.980Z,1004.49
2023-01-06T03:32:02.952Z,1004.49
2023-01-06T03:33:02.911Z,1004.46
2023-01-06T03:34:02.911Z,1004.41
2023-01-06T03:35:02.926Z,1004.38
2023-01-06T03:36:02.876Z,1004.34
2023-01-06T03:37:02.826Z,1004.34
2023-01-06T03:38:02.851Z,1004.33
2023-01-06T03:39:02.860Z,1004.32
2023-01-06T03:40:02.843Z,1004.34
2023-01-06T03:41:02.860Z,1004.33
2023-01-06T03:42:02.828Z,1004.30
2023-01-06T03:43:02.816Z,1004.33
2023-01-06T03:44:02.830Z,1004.38
2023-01-06T03:45:02.835Z,1004.41
2023-01-06T03:46:02.781Z,1004.38
2023-01-06T03:47:02.793Z,1004.33
2023-01-06T03:48:02.770Z,1004.39
2023-01-06T03:49:02.742Z,1004.34
2023-01-06T03:50:02.740Z,1004.32
2023-01-06T03:51:02.784Z,1004.31
2023-01-06T03:52:02.733Z,1004.29
2023-01-06T03:53:02.728Z,1004.33
2023-01-06T03:54:02.748Z,1004.32
2023-01-06T03:55:02.690Z,1004.31
2023-01-06T03:56:02.722Z,1004.28
2023-01-06T03:57:02.679Z,1004.28
2023-01-06T03:58:02.675Z,1004.29
2023-01-06T03:59:02.663Z,1004.23
2023-01-06T04:00:02.651Z,1004.22
2023-01-06T04:02:30.022Z,1004.17
2023-01-06T04:03:30.833Z,1004.14
2023-01-06T04:04:30.760Z,1004.20
2023-01-06T04:05:30.710Z,1004.18
2023-01-06T04:06:30.662Z,1004.17
2023-01-06T04:07:30.681Z,1004.13
2023-01-06T04:08:30.651Z,1004.10
2023-01-06T04:09:30.629Z,1004.13
2023-01-06T04:10:30.628Z,1004.14
2023-01-06T04:11:30.612Z,1004.17
2023-01-06T04:12:30.630Z,1004.11
2023-01-06T04:13:30.631Z,1004.14
2023-01-06T04:16:00.280Z,1004.11
2023-01-06T04:17:01.213Z,1004.15
2023-01-06T04:18:01.088Z,1004.09
2023-01-06T04:19:01.129Z,1004.08
2023-01-06T04:20:01.118Z,1004.10
2023-01-06T04:21:01.110Z,1004.05
2023-01-06T04:22:01.103Z,1004.09
2023-01-06T04:23:01.079Z,1004.08
2023-01-06T04:24:01.091Z,1004.10
2023-01-06T04:25:01.103Z,1004.09
2023-01-06T04:26:01.101Z,1004.05
2023-01-06T04:27:01.053Z,1003.99
2023-01-06T04:30:42.611Z,1004.00
2023-01-06T04:31:43.590Z,1004.04
2023-01-06T04:32:43.475Z,1003.99
2023-01-06T04:33:43.468Z,1003.93
2023-01-06T04:34:43.429Z,1003.93
2023-01-06T04:35:43.421Z,1003.85
2023-01-06T04:36:43.403Z,1003.90
2023-01-06T04:37:43.422Z,1003.83
2023-01-06T04:38:43.415Z,1003.82
2023-01-06T04:41:25.292Z,1003.73
2023-01-06T04:42:26.210Z,1003.63
2023-01-06T04:43:26.122Z,1003.61
2023-01-06T04:44:26.169Z,1003.61
2023-01-06T04:45:26.181Z,1003.64
2023-01-06T04:46:26.128Z,1003.60
2023-01-06T04:47:26.096Z,1003.64
2023-01-06T04:48:26.078Z,1003.64
2023-01-06T04:49:26.088Z,1003.63
2023-01-06T04:50:26.051Z,1003.65
2023-01-06T04:51:26.108Z,1003.59
2023-01-06T04:52:26.048Z,1003.59
2023-01-06T04:53:26.031Z,1003.61
2023-01-06T04:54:26.005Z,1003.61
2023-01-06T04:55:26.010Z,1003.67
2023-01-06T04:56:26.863Z,1003.62
2023-01-06T04:57:25.988Z,1003.58
2023-01-06T04:58:25.991Z,1003.58
2023-01-06T04:59:25.974Z,1003.60
2023-01-06T05:00:25.935Z,1003.62
2023-01-06T05:01:26.068Z,1003.58
2023-01-06T05:02:25.921Z,1003.64
2023-01-06T05:03:25.926Z,1003.58
2023-01-06T05:04:26.205Z,1003.58
2023-01-06T05:05:25.905Z,1003.56
2023-01-06T05:06:25.900Z,1003.57
2023-01-06T05:07:25.856Z,1003.54
2023-01-06T05:08:25.872Z,1003.57
2023-01-06T05:09:25.881Z,1003.57
2023-01-06T05:10:25.838Z,1003.53
2023-01-06T05:11:25.863Z,1003.57
2023-01-06T05:12:25.806Z,1003.53
2023-01-06T05:13:25.847Z,1003.56
2023-01-06T05:14:25.799Z,1003.52
2023-01-06T05:15:25.788Z,1003.55
2023-01-06T05:16:25.836Z,1003.54
2023-01-06T05:17:25.781Z,1003.56
2023-01-06T05:18:25.751Z,1003.54
2023-01-06T05:19:25.742Z,1003.58
2023-01-06T05:20:25.687Z,1003.60
2023-01-06T05:21:25.677Z,1003.62
2023-01-06T05:22:25.729Z,1003.65
2023-01-06T05:23:25.695Z,1003.60
2023-01-06T05:24:25.728Z,1003.52
2023-01-06T05:25:25.734Z,1003.54
2023-01-06T05:26:25.701Z,1003.45
2023-01-06T05:27:25.682Z,1003.46
2023-01-06T05:28:25.682Z,1003.46
2023-01-06T05:29:25.641Z,1003.49
2023-01-06T05:30:25.606Z,1003.48
2023-01-06T05:31:25.684Z,1003.52
2023-01-06T05:32:25.619Z,1003.54
2023-01-06T05:33:25.593Z,1003.52
2023-01-06T05:34:25.620Z,1003.46
2023-01-06T05:35:25.564Z,1003.48
2023-01-06T05:36:25.576Z,1003.49
2023-01-06T05:37:25.565Z,1003.49
2023-01-06T05:38:25.541Z,1003.48
2023-01-06T05:39:25.529Z,1003.44
2023-01-06T05:40:25.525Z,1003.43
2023-01-06T05:41:25.528Z,1003.47
2023-01-06T05:42:26.322Z,1003.41
2023-01-06T05:43:25.511Z,1003.44
2023-01-06T05:44:25.492Z,1003.45
2023-01-06T05:45:25.471Z,1003.44
2023-01-06T05:46:25.472Z,1003.48
2023-01-06T05:47:25.491Z,1003.42
2023-01-06T05:48:25.422Z,1003.41
2023-01-06T05:49:25.430Z,1003.44
2023-01-06T05:50:25.410Z,1003.42
2023-01-06T05:51:25.441Z,1003.41
2023-01-06T05:52:25.426Z,1003.39
2023-01-06T05:53:25.408Z,1003.36
2023-01-06T05:54:25.385Z,1003.38
2023-01-06T05:55:25.380Z,1003.41
2023-01-06T05:56:25.358Z,1003.43
2023-01-06T05:57:25.357Z,1003.37
2023-01-06T05:58:25.429Z,1003.51
2023-01-06T05:59:25.355Z,1003.34
2023-01-06T06:00:25.316Z,1003.32
2023-01-06T06:01:25.397Z,1003.42
2023-01-06T06:02:25.308Z,1003.46
2023-01-06T06:03:25.380Z,1003.41
2023-01-06T06:04:25.267Z,1003.42
2023-01-06T06:05:25.268Z,1003.43
2023-01-06T06:06:25.232Z,1003.45
2023-01-06T06:07:25.242Z,1003.42
2023-01-06T06:08:25.247Z,1003.33
2023-01-06T06:09:25.218Z,1003.36
2023-01-06T06:10:25.227Z,1003.30
2023-01-06T06:11:25.204Z,1003.38
2023-01-06T06:12:25.194Z,1003.43
2023-01-06T06:13:25.191Z,1003.41
2023-01-06T06:14:25.170Z,1003.37
2023-01-06T06:15:25.148Z,1003.36
2023-01-06T06:16:25.169Z,1003.30
2023-01-06T06:17:25.141Z,1003.32
2023-01-06T06:18:25.121Z,1003.37
2023-01-06T06:19:25.103Z,1003.37
2023-01-06T06:20:25.119Z,1003.34
2023-01-06T06:21:25.108Z,1003.42
2023-01-06T06:22:25.063Z,1003.37
2023-01-06T06:23:25.068Z,1003.35
2023-01-06T06:24:25.061Z,1003.36
2023-01-06T06:25:25.043Z,1003.35
2023-01-06T06:26:25.044Z,1003.31
2023-01-06T06:27:25.036Z,1003.32
2023-01-06T06:28:24.998Z,1003.36
2023-01-06T06:29:25.013Z,1003.28
2023-01-06T06:30:24.982Z,1003.20
2023-01-06T06:31:25.061Z,1003.24
2023-01-06T06:32:24.985Z,1003.28
2023-01-06T06:33:24.969Z,1003.26
2023-01-06T06:34:25.112Z,1003.24
2023-01-06T06:35:24.938Z,1003.25
2023-01-06T06:36:24.922Z,1003.22
2023-01-06T06:37:24.913Z,1003.19
2023-01-06T06:38:24.908Z,1003.13
2023-01-06T06:39:24.913Z,1003.23
2023-01-06T06:40:24.890Z,1003.15
2023-01-06T06:41:24.873Z,1003.18
2023-01-06T06:42:24.883Z,1003.22
2023-01-06T06:43:24.861Z,1003.25
2023-01-06T06:44:24.849Z,1003.22
2023-01-06T06:45:24.834Z,1003.21
2023-01-06T06:46:24.821Z,1003.18
2023-01-06T06:47:24.806Z,1003.25
2023-01-06T06:48:24.808Z,1003.22
2023-01-06T06:49:24.771Z,1003.20
2023-01-06T06:50:24.790Z,1003.17
2023-01-06T06:51:24.781Z,1003.12
2023-01-06T06:52:24.767Z,1003.08
2023-01-06T06:53:24.738Z,1003.11
2023-01-06T06:54:24.741Z,1003.10
2023-01-06T06:55:24.733Z,1003.11
2023-01-06T06:56:24.728Z,1003.08
2023-01-06T06:57:24.706Z,1003.08
2023-01-06T06:58:24.695Z,1003.05
2023-01-06T06:59:24.720Z,1003.07
2023-01-06T07:00:24.679Z,1003.07
2023-01-06T07:01:24.771Z,1003.04
2023-01-06T07:02:24.693Z,1003.01
2023-01-06T07:03:24.648Z,1002.99
2023-01-06T07:04:24.695Z,1003.00
2023-01-06T07:05:24.645Z,1002.98
2023-01-06T07:06:25.652Z,1003.02
2023-01-06T07:07:24.609Z,1002.98
2023-01-06T07:08:24.586Z,1002.92
2023-01-06T07:09:24.621Z,1002.96
2023-01-06T07:10:24.661Z,1002.90
2023-01-06T07:11:24.543Z,1002.86
2023-01-06T07:12:24.684Z,1002.91
2023-01-06T07:13:24.464Z,1002.80
2023-01-06T07:14:26.516Z,1002.84
2023-01-06T07:15:24.593Z,1002.86
2023-01-06T07:16:24.516Z,1002.85
2023-01-06T07:17:24.617Z,1002.83
2023-01-06T07:18:24.714Z,1002.80
2023-01-06T07:19:25.475Z,1002.88
2023-01-06T07:20:24.417Z,1002.82
2023-01-06T07:21:25.066Z,1002.89
2023-01-06T07:22:24.398Z,1002.90
2023-01-06T07:23:26.048Z,1002.95
2023-01-06T07:24:24.362Z,1002.91
2023-01-06T07:25:25.880Z,1002.92
2023-01-06T07:26:24.514Z,1002.96
2023-01-06T07:27:24.853Z,1002.97
2023-01-06T07:28:24.326Z,1002.96
2023-01-06T07:29:24.360Z,1002.94
2023-01-06T07:30:25.992Z,1003.02
2023-01-06T07:31:25.256Z,1003.04
2023-01-06T07:32:24.282Z,1002.98
2023-01-06T07:33:24.327Z,1003.04
2023-01-06T07:34:24.265Z,1003.00
2023-01-06T07:35:24.279Z,1002.98
2023-01-06T07:36:24.234Z,1002.97
2023-01-06T07:37:24.243Z,1003.03
2023-01-06T07:38:25.067Z,1003.01
2023-01-06T07:39:24.229Z,1003.00
2023-01-06T07:40:24.219Z,1002.94
2023-01-06T07:41:24.186Z,1002.97
2023-01-06T07:42:24.179Z,1002.92
2023-01-06T07:43:24.168Z,1002.97
2023-01-06T07:44:24.162Z,1002.99
2023-01-06T07:45:24.132Z,1002.94
2023-01-06T07:46:24.343Z,1002.96
2023-01-06T07:47:24.210Z,1002.89
2023-01-06T07:48:24.164Z,1002.94
2023-01-06T07:49:24.107Z,1003.00
2023-01-06T07:50:26.294Z,1002.99
2023-01-06T07:51:24.168Z,1003.00
2023-01-06T07:52:24.091Z,1003.06
2023-01-06T07:53:24.101Z,1003.02
2023-01-06T07:54:24.109Z,1003.02
2023-01-06T07:55:24.053Z,1002.99
2023-01-06T07:56:24.089Z,1002.98
2023-01-06T07:57:24.008Z,1002.90
2023-01-06T07:58:24.144Z,1002.93
2023-01-06T07:59:23.985Z,1002.98
2023-01-06T08:00:23.984Z,1002.98
2023-01-06T08:01:24.089Z,1002.96
2023-01-06T08:02:24.055Z,1002.90
2023-01-06T08:03:24.067Z,1002.98
2023-01-06T08:04:23.942Z,1002.94
2023-01-06T08:05:23.922Z,1002.88
2023-01-06T08:06:23.926Z,1002.92
2023-01-06T08:07:23.979Z,1002.93
2023-01-06T08:08:24.453Z,1002.97
2023-01-06T08:09:23.966Z,1003.01
2023-01-06T08:10:23.878Z,1003.00
2023-01-06T08:11:23.869Z,1002.94
2023-01-06T08:12:23.883Z,1003.03
2023-01-06T08:13:24.251Z,1003.01
2023-01-06T08:14:23.843Z,1002.97
2023-01-06T08:15:23.887Z,1002.97
2023-01-06T08:16:23.838Z,1002.94
2023-01-06T08:17:23.813Z,1003.08
2023-01-06T08:18:23.794Z,1003.10
2023-01-06T08:19:23.785Z,1003.09
2023-01-06T08:34:58.877Z,1003.34
2023-01-06T08:35:59.852Z,1003.43
2023-01-06T08:37:00.032Z,1003.42
2023-01-06T08:38:01.933Z,1003.40
2023-01-06T08:38:59.868Z,1003.42
2023-01-06T08:39:59.952Z,1003.45
2023-01-06T08:40:59.856Z,1003.42
2023-01-06T08:42:01.077Z,1003.42
2023-01-06T08:42:59.854Z,1003.39
2023-01-06T08:43:59.849Z,1003.44
2023-01-06T08:44:59.794Z,1003.51
2023-01-06T08:45:59.871Z,1003.55
2023-01-06T08:46:59.724Z,1003.60
2023-01-06T08:47:59.716Z,1003.53
2023-01-06T08:48:59.748Z,1003.57
2023-01-06T08:49:59.755Z,1003.59
2023-01-06T08:50:59.712Z,1003.55
2023-01-06T08:51:59.669Z,1003.63
2023-01-06T08:52:59.663Z,1003.60
2023-01-06T08:53:59.653Z,1003.67
2023-01-06T08:54:59.655Z,1003.58
2023-01-06T08:55:59.755Z,1003.60
2023-01-06T08:56:59.623Z,1003.58
2023-01-06T08:57:59.656Z,1003.66
2023-01-06T08:58:59.609Z,1003.66
2023-01-06T08:59:59.685Z,1003.57
2023-01-06T09:00:59.565Z,1003.67
2023-01-06T09:01:59.733Z,1003.64
2023-01-06T09:02:59.551Z,1003.63
2023-01-06T09:03:59.681Z,1003.65
2023-01-06T09:11:53.392Z,1003.63
2023-01-06T09:12:54.636Z,1003.65
2023-01-06T09:13:54.834Z,1003.69
2023-01-06T09:14:54.397Z,1003.70
2023-01-06T09:15:54.409Z,1003.73
2023-01-06T09:16:54.450Z,1003.72
2023-01-06T09:17:54.401Z,1003.68
2023-01-06T09:18:54.367Z,1003.74
2023-01-06T09:19:54.281Z,1003.74
2023-01-06T09:20:54.346Z,1003.76
2023-01-06T09:21:54.472Z,1003.76
2023-01-06T09:22:54.379Z,1003.79
2023-01-06T09:23:54.422Z,1003.79
2023-01-06T09:24:54.281Z,1003.78
2023-01-06T09:25:54.447Z,1003.84
2023-01-06T09:26:55.273Z,1003.94
2023-01-06T09:27:54.305Z,1003.91
2023-01-06T09:28:54.282Z,1003.91
2023-01-06T09:29:54.346Z,1003.92
2023-01-06T09:30:54.531Z,1003.74
2023-01-06T09:31:54.255Z,1003.90
2023-01-06T09:32:54.251Z,1003.89
2023-01-06T09:33:54.453Z,1003.98
2023-01-06T09:34:54.143Z,1003.94
2023-01-06T09:35:54.260Z,1003.93
2023-01-06T09:36:54.127Z,1004.00
2023-01-06T09:37:54.116Z,1004.06
2023-01-06T09:38:54.147Z,1004.13
2023-01-06T09:39:54.203Z,1004.05
2023-01-06T09:40:54.068Z,1004.04
2023-01-06T09:41:54.097Z,1004.07
2023-01-06T09:42:54.105Z,1004.18
2023-01-06T09:43:54.056Z,1004.12
2023-01-06T09:44:54.045Z,1004.14
2023-01-06T09:45:54.056Z,1004.14
2023-01-06T09:46:54.109Z,1004.17
2023-01-06T09:47:54.096Z,1004.24
2023-01-06T09:48:54.088Z,1004.21
2023-01-06T09:49:54.033Z,1004.21
2023-01-06T09:50:53.981Z,1004.25
2023-01-06T09:51:53.964Z,1004.24
2023-01-06T09:52:54.487Z,1004.27
2023-01-06T09:53:53.995Z,1004.26
2023-01-06T09:54:53.946Z,1004.26
2023-01-06T09:55:53.921Z,1004.35
2023-01-06T09:56:53.940Z,1004.34
2023-01-06T09:57:53.937Z,1004.37
2023-01-06T09:58:53.883Z,1004.27
2023-01-06T09:59:53.909Z,1004.36
2023-01-06T10:00:54.022Z,1004.45
2023-01-06T10:01:54.046Z,1004.43
2023-01-06T10:05:07.116Z,1004.39
2023-01-06T10:06:08.215Z,1004.39
2023-01-06T10:07:08.108Z,1004.32
2023-01-06T10:08:08.006Z,1004.37
2023-01-06T10:09:08.113Z,1004.39
2023-01-06T10:10:08.359Z,1004.42
2023-01-06T10:11:08.077Z,1004.44
2023-01-06T10:21:12.490Z,1004.39
2023-01-06T10:22:12.986Z,1004.37
2023-01-06T10:23:13.403Z,1004.42
2023-01-06T10:25:34.490Z,1004.41
2023-01-06T10:26:35.328Z,1004.35
2023-01-06T10:27:35.161Z,1004.39
2023-01-06T10:28:35.209Z,1004.43
2023-01-06T10:29:35.163Z,1004.40
2023-01-06T10:30:40.174Z,1004.45
2023-01-06T10:31:35.696Z,1004.44
2023-01-06T10:32:35.568Z,1004.39
2023-01-06T10:33:35.284Z,1004.42
2023-01-06T10:34:35.242Z,1004.39
2023-01-06T10:37:05.653Z,1004.54
2023-01-06T10:39:32.018Z,1004.53
2023-01-06T10:40:33.033Z,1004.50
2023-01-06T10:41:32.963Z,1004.53
2023-01-06T10:42:33.086Z,1004.52
2023-01-06T10:43:32.942Z,1004.51
2023-01-06T10:44:32.996Z,1004.53
2023-01-06T10:45:32.922Z,1004.55
2023-01-06T10:46:32.974Z,1004.52
2023-01-06T10:47:32.937Z,1004.59
2023-01-06T10:48:32.903Z,1004.62
2023-01-06T10:49:32.970Z,1004.64
2023-01-06T10:50:32.932Z,1004.56
2023-01-06T10:51:32.895Z,1004.55
2023-01-06T10:52:32.865Z,1004.58
2023-01-06T10:53:32.969Z,1004.59
2023-01-06T10:54:32.831Z,1004.58
2023-01-06T10:55:32.856Z,1004.63
2023-01-06T10:56:32.823Z,1004.63
2023-01-06T10:57:32.842Z,1004.63
2023-01-06T10:58:32.838Z,1004.68
2023-01-06T10:59:32.811Z,1004.70
2023-01-06T11:00:32.850Z,1004.74
2023-01-06T11:01:34.808Z,1004.77
2023-01-06T11:02:33.128Z,1004.74
2023-01-06T11:03:34.558Z,1004.74
2023-01-06T11:04:33.054Z,1004.80
2023-01-06T11:05:32.829Z,1004.76
2023-01-06T11:08:04.017Z,1004.74
2023-01-06T11:09:05.033Z,1004.71
2023-01-06T11:10:04.975Z,1004.69
2023-01-06T11:11:05.100Z,1004.64
2023-01-06T11:12:05.419Z,1004.73
2023-01-06T11:13:05.073Z,1004.70
2023-01-06T11:14:05.094Z,1004.74
2023-01-06T11:15:04.963Z,1004.76
2023-01-06T11:16:05.080Z,1004.75
2023-01-06T11:17:05.202Z,1004.77
2023-01-06T11:18:04.940Z,1004.77
2023-01-06T11:19:06.208Z,1004.74
2023-01-06T11:20:04.850Z,1004.77
2023-01-06T11:21:04.870Z,1004.78
2023-01-06T11:22:04.881Z,1004.75
2023-01-06T11:23:05.277Z,1004.77
2023-01-06T11:24:04.993Z,1004.72
2023-01-06T11:25:04.887Z,1004.74
2023-01-06T11:26:04.814Z,1004.75
2023-01-06T11:27:04.973Z,1004.73
2023-01-06T11:28:05.331Z,1004.74
2023-01-06T11:30:35.233Z,1004.76
2023-01-06T11:31:35.461Z,1004.75
2023-01-06T11:32:35.432Z,1004.78
2023-01-06T11:56:09.306Z,1004.54
2023-01-06T11:57:10.608Z,1004.47
2023-01-06T11:58:10.125Z,1004.49
2023-01-06T11:59:10.876Z,1004.47
2023-01-06T12:00:10.298Z,1004.50
2023-01-06T12:01:10.775Z,1004.53
2023-01-06T12:02:10.248Z,1004.51
2023-01-06T12:03:10.122Z,1004.50
2023-01-06T12:04:10.080Z,1004.53
2023-01-06T12:05:10.063Z,1004.49
2023-01-06T12:06:10.741Z,1004.46
2023-01-06T12:07:10.039Z,1004.50
2023-01-06T12:08:10.059Z,1004.47
2023-01-06T12:09:09.998Z,1004.55
2023-01-06T12:10:10.536Z,1004.47
2023-01-06T12:11:09.985Z,1004.52
2023-01-06T12:12:09.990Z,1004.53
2023-01-06T12:13:09.971Z,1004.53
2023-01-06T12:14:19.615Z,1004.59
2023-01-06T12:15:09.936Z,1004.55
2023-01-06T12:16:09.997Z,1004.56
2023-01-06T12:17:10.064Z,1004.60
2023-01-06T12:18:09.887Z,1004.69
2023-01-06T12:19:09.900Z,1004.61
2023-01-06T12:20:11.970Z,1004.62
2023-01-06T12:21:09.864Z,1004.63
2023-01-06T12:22:09.869Z,1004.63
2023-01-06T12:23:09.854Z,1004.63
2023-01-06T12:24:09.841Z,1004.66
2023-01-06T12:25:09.854Z,1004.66
2023-01-06T12:34:27.630Z,1004.71
2023-01-06T12:35:27.429Z,1004.68
2023-01-06T12:36:27.349Z,1004.66
2023-01-06T12:37:28.138Z,1004.65
2023-01-06T12:38:27.248Z,1004.64
2023-01-06T12:39:27.949Z,1004.69
2023-01-06T12:40:27.191Z,1004.71
2023-01-06T12:41:29.074Z,1004.72
2023-01-06T12:42:29.137Z,1004.69
2023-01-06T12:43:28.374Z,1004.69
2023-01-06T12:44:27.173Z,1004.72
2023-01-06T12:45:27.153Z,1004.68
2023-01-06T12:46:27.226Z,1004.65
2023-01-06T12:47:27.127Z,1004.65
2023-01-06T12:48:27.102Z,1004.66
2023-01-06T12:49:27.131Z,1004.68
2023-01-06T12:50:27.108Z,1004.68
2023-01-06T12:51:27.104Z,1004.71
2023-01-06T12:52:27.088Z,1004.72
2023-01-06T12:53:27.119Z,1004.72
2023-01-06T12:54:27.078Z,1004.73
2023-01-06T12:55:27.040Z,1004.76
2023-01-06T12:56:27.056Z,1004.75
2023-01-06T12:57:27.044Z,1004.75
2023-01-06T12:58:27.031Z,1004.75
2023-01-06T12:59:27.021Z,1004.74
2023-01-06T13:00:27.050Z,1004.75
2023-01-06T13:01:27.106Z,1004.75
2023-01-06T13:02:26.964Z,1004.74
2023-01-06T13:03:26.977Z,1004.76
2023-01-06T13:04:26.982Z,1004.76
2023-01-06T13:05:26.980Z,1004.76
2023-01-06T13:06:26.948Z,1004.74
2023-01-06T13:07:26.924Z,1004.78
2023-01-06T13:08:26.919Z,1004.75
2023-01-06T13:09:26.929Z,1004.75
2023-01-06T13:10:26.907Z,1004.77
2023-01-06T13:11:26.897Z,1004.78
2023-01-06T13:12:27.582Z,1004.78
2023-01-06T13:13:26.873Z,1004.77
2023-01-06T13:14:26.858Z,1004.78
2023-01-06T13:15:26.877Z,1004.77
2023-01-06T13:16:26.889Z,1004.76
2023-01-06T13:17:26.827Z,1004.75
2023-01-06T13:18:26.893Z,1004.77
2023-01-06T13:19:26.799Z,1004.75
2023-01-06T13:20:26.850Z,1004.78
2023-01-06T13:21:26.773Z,1004.81
2023-01-06T13:22:26.768Z,1004.78
2023-01-06T13:23:27.176Z,1004.78